sensor_id;sensor_type;location;lat;lon;timestamp;pressure;altitude;pressure_sealevel;temperature
15453;BMP280;7827;53.594;9.938;2023-08-20T00:00:18;20526.50;;;-135.29
15453;BMP280;7827;53.594;9.938;2023-08-20T00:02:55;20865.88;;;-135.29
15453;BMP280;7827;53.594;9.938;2023-08-20T00:05:27;21024.00;;;-135.29
15453;BMP280;7827;53.594;9.938;2023-08-20T00:07:55;21220.72;;;-135.29
15453;BMP280;7827;53.594;9.938;2023-08-20T00:10:28;21108.84;;;-135.29
15453;BMP280;7827;53.594;9.938;2023-08-20T00:12:56;21126.22;;;-135.29
15453;BMP280;7827;53.594;9.938;2023-08-20T00:15:25;21315.22;;;-135.29
15453;BMP280;7827;53.594;9.938;2023-08-20T00:17:55;21309.44;;;-135.29
15453;BMP280;7827;53.594;9.938;2023-08-20T00:20:25;21432.88;;;-135.29
15453;BMP280;7827;53.594;9.938;2023-08-20T00:22:56;21336.44;;;-135.29
15453;BMP280;7827;53.594;9.938;2023-08-20T00:25:27;21365.38;;;-135.29
15453;BMP280;7827;53.594;9.938;2023-08-20T00:27:55;21652.75;;;-135.29
15453;BMP280;7827;53.594;9.938;2023-08-20T00:30:24;21513.88;;;-135.29
15453;BMP280;7827;53.594;9.938;2023-08-20T00:32:52;21527.38;;;-135.29
15453;BMP280;7827;53.594;9.938;2023-08-20T00:35:21;21760.78;;;-135.29
15453;BMP280;7827;53.594;9.938;2023-08-20T00:37:50;21564.03;;;-135.29
15453;BMP280;7827;53.594;9.938;2023-08-20T00:40:19;21857.25;;;-135.29
15453;BMP280;7827;53.594;9.938;2023-08-20T00:42:49;22117.69;;;-135.29
15453;BMP280;7827;53.594;9.938;2023-08-20T00:45:17;22318.31;;;-135.29
15453;BMP280;7827;53.594;9.938;2023-08-20T00:47:46;22154.34;;;-135.29
15453;BMP280;7827;53.594;9.938;2023-08-20T00:50:16;22316.41;;;-135.29
15453;BMP280;7827;53.594;9.938;2023-08-20T00:52:46;22382.00;;;-135.29
15453;BMP280;7827;53.594;9.938;2023-08-20T00:55:15;22235.38;;;-135.29
15453;BMP280;7827;53.594;9.938;2023-08-20T00:57:43;22216.06;;;-135.29
15453;BMP280;7827;53.594;9.938;2023-08-20T01:00:14;22289.38;;;-135.29
15453;BMP280;7827;53.594;9.938;2023-08-20T01:02:43;22349.19;;;-135.29
15453;BMP280;7827;53.594;9.938;2023-08-20T01:05:16;22551.78;;;-135.29
15453;BMP280;7827;53.594;9.938;2023-08-20T01:07:58;22694.59;;;-135.29
15453;BMP280;7827;53.594;9.938;2023-08-20T01:10:43;22607.75;;;-135.29
15453;BMP280;7827;53.594;9.938;2023-08-20T01:13:14;22598.09;;;-135.29
15453;BMP280;7827;53.594;9.938;2023-08-20T01:15:44;22922.28;;;-135.29
15453;BMP280;7827;53.594;9.938;2023-08-20T01:18:13;23250.38;;;-135.29
15453;BMP280;7827;53.594;9.938;2023-08-20T01:20:49;23312.16;;;-135.29
15453;BMP280;7827;53.594;9.938;2023-08-20T01:24:01;23333.38;;;-135.29
15453;BMP280;7827;53.594;9.938;2023-08-20T01:26:54;23375.84;;;-135.29
15453;BMP280;7827;53.594;9.938;2023-08-20T01:29:31;23497.44;;;-135.29
15453;BMP280;7827;53.594;9.938;2023-08-20T01:32:00;23694.34;;;-135.29
15453;BMP280;7827;53.594;9.938;2023-08-20T01:34:29;23615.19;;;-135.29
15453;BMP280;7827;53.594;9.938;2023-08-20T01:36:58;23424.09;;;-135.29
15453;BMP280;7827;53.594;9.938;2023-08-20T01:39:27;23319.88;;;-135.29
15453;BMP280;7827;53.594;9.938;2023-08-20T01:41:56;23812.09;;;-135.29
15453;BMP280;7827;53.594;9.938;2023-08-20T01:44:26;23545.69;;;-135.29
15453;BMP280;7827;53.594;9.938;2023-08-20T01:46:56;23927.91;;;-135.29
15453;BMP280;7827;53.594;9.938;2023-08-20T01:49:28;23740.66;;;-135.29
15453;BMP280;7827;53.594;9.938;2023-08-20T01:51:57;24026.38;;;-135.29
15453;BMP280;7827;53.594;9.938;2023-08-20T01:54:25;23748.38;;;-135.29
15453;BMP280;7827;53.594;9.938;2023-08-20T01:56:54;23949.16;;;-135.29
15453;BMP280;7827;53.594;9.938;2023-08-20T01:59:22;24018.66;;;-135.29
15453;BMP280;7827;53.594;9.938;2023-08-20T02:01:51;23964.59;;;-135.29
15453;BMP280;7827;53.594;9.938;2023-08-20T02:04:21;24057.25;;;-135.29
15453;BMP280;7827;53.594;9.938;2023-08-20T02:06:49;24221.38;;;-135.29
15453;BMP280;7827;53.594;9.938;2023-08-20T02:09:17;24246.47;;;-135.29
15453;BMP280;7827;53.594;9.938;2023-08-20T02:11:46;24124.84;;;-135.29
15453;BMP280;7827;53.594;9.938;2023-08-20T02:14:14;24204.00;;;-135.29
15453;BMP280;7827;53.594;9.938;2023-08-20T02:16:43;24476.25;;;-135.29
15453;BMP280;7827;53.594;9.938;2023-08-20T02:19:11;24561.19;;;-135.29
15453;BMP280;7827;53.594;9.938;2023-08-20T02:21:42;24528.38;;;-135.29
15453;BMP280;7827;53.594;9.938;2023-08-20T02:24:10;24404.81;;;-135.29
15453;BMP280;7827;53.594;9.938;2023-08-20T02:26:39;24823.81;;;-135.29
15453;BMP280;7827;53.594;9.938;2023-08-20T02:29:07;24754.31;;;-135.29
15453;BMP280;7827;53.594;9.938;2023-08-20T02:31:36;24584.38;;;-135.29
15453;BMP280;7827;53.594;9.938;2023-08-20T02:34:04;24621.06;;;-135.29
15453;BMP280;7827;53.594;9.938;2023-08-20T02:36:33;24850.88;;;-135.29
15453;BMP280;7827;53.594;9.938;2023-08-20T02:39:03;24951.28;;;-135.29
15453;BMP280;7827;53.594;9.938;2023-08-20T02:41:32;25034.34;;;-135.29
15453;BMP280;7827;53.594;9.938;2023-08-20T02:44:00;25038.19;;;-135.29
15453;BMP280;7827;53.594;9.938;2023-08-20T02:46:29;25306.66;;;-135.29
15453;BMP280;7827;53.594;9.938;2023-08-20T02:48:57;25011.16;;;-135.29
15453;BMP280;7827;53.594;9.938;2023-08-20T02:51:27;24989.91;;;-135.29
15453;BMP280;7827;53.594;9.938;2023-08-20T02:53:55;24960.94;;;-135.29
15453;BMP280;7827;53.594;9.938;2023-08-20T02:56:25;24997.63;;;-135.29
15453;BMP280;7827;53.594;9.938;2023-08-20T02:58:53;25071.03;;;-135.29
15453;BMP280;7827;53.594;9.938;2023-08-20T03:01:23;24870.19;;;-135.29
15453;BMP280;7827;53.594;9.938;2023-08-20T03:03:54;24910.72;;;-135.29
15453;BMP280;7827;53.594;9.938;2023-08-20T03:06:22;24989.91;;;-135.29
15453;BMP280;7827;53.594;9.938;2023-08-20T03:08:51;24937.78;;;-135.29
15453;BMP280;7827;53.594;9.938;2023-08-20T03:11:19;25092.28;;;-135.29
15453;BMP280;7827;53.594;9.938;2023-08-20T03:13:48;24930.03;;;-135.29
15453;BMP280;7827;53.594;9.938;2023-08-20T03:16:17;24968.66;;;-135.29
15453;BMP280;7827;53.594;9.938;2023-08-20T03:18:45;25067.16;;;-135.29
15453;BMP280;7827;53.594;9.938;2023-08-20T03:21:13;25134.75;;;-135.29
15453;BMP280;7827;53.594;9.938;2023-08-20T03:23:42;25142.50;;;-135.29
15453;BMP280;7827;53.594;9.938;2023-08-20T03:26:10;25115.44;;;-135.29
15453;BMP280;7827;53.594;9.938;2023-08-20T03:28:38;25072.97;;;-135.29
15453;BMP280;7827;53.594;9.938;2023-08-20T03:31:08;25509.47;;;-135.29
15453;BMP280;7827;53.594;9.938;2023-08-20T03:33:40;25271.91;;;-135.29
15453;BMP280;7827;53.594;9.938;2023-08-20T03:36:08;25550.03;;;-135.29
15453;BMP280;7827;53.594;9.938;2023-08-20T03:38:37;25559.69;;;-135.29
15453;BMP280;7827;53.594;9.938;2023-08-20T03:41:05;25660.16;;;-135.29
15453;BMP280;7827;53.594;9.938;2023-08-20T03:43:35;25679.47;;;-135.29
15453;BMP280;7827;53.594;9.938;2023-08-20T03:46:03;25455.38;;;-135.29
15453;BMP280;7827;53.594;9.938;2023-08-20T03:48:33;25412.91;;;-135.29
15453;BMP280;7827;53.594;9.938;2023-08-20T03:51:01;25424.47;;;-135.29
15453;BMP280;7827;53.594;9.938;2023-08-20T03:53:31;25370.41;;;-135.29
15453;BMP280;7827;53.594;9.938;2023-08-20T03:56:00;25694.91;;;-135.29
15453;BMP280;7827;53.594;9.938;2023-08-20T03:58:28;25569.34;;;-135.29
15453;BMP280;7827;53.594;9.938;2023-08-20T04:00:56;25718.09;;;-135.29
15453;BMP280;7827;53.594;9.938;2023-08-20T04:03:25;25762.53;;;-135.29
15453;BMP280;7827;53.594;9.938;2023-08-20T04:05:54;25385.84;;;-135.29
15453;BMP280;7827;53.594;9.938;2023-08-20T04:08:23;25582.88;;;-135.29
15453;BMP280;7827;53.594;9.938;2023-08-20T04:10:52;25652.41;;;-135.29
15453;BMP280;7827;53.594;9.938;2023-08-20T04:13:20;25463.13;;;-135.29
15453;BMP280;7827;53.594;9.938;2023-08-20T04:15:48;25592.53;;;-135.29
15453;BMP280;7827;53.594;9.938;2023-08-20T04:18:17;25640.84;;;-135.29
15453;BMP280;7827;53.594;9.938;2023-08-20T04:20:45;25569.34;;;-135.29
15453;BMP280;7827;53.594;9.938;2023-08-20T04:23:15;25333.69;;;-135.29
15453;BMP280;7827;53.594;9.938;2023-08-20T04:25:43;25103.84;;;-135.29
15453;BMP280;7827;53.594;9.938;2023-08-20T04:28:15;25138.63;;;-135.29
15453;BMP280;7827;53.594;9.938;2023-08-20T04:30:43;25246.78;;;-135.29
15453;BMP280;7827;53.594;9.938;2023-08-20T04:33:12;25250.66;;;-135.29
15453;BMP280;7827;53.594;9.938;2023-08-20T04:35:43;24959.00;;;-135.29
15453;BMP280;7827;53.594;9.938;2023-08-20T04:38:12;25173.38;;;-135.29
15453;BMP280;7827;53.594;9.938;2023-08-20T04:40:42;25250.66;;;-135.29
15453;BMP280;7827;53.594;9.938;2023-08-20T04:43:10;24933.91;;;-135.29
15453;BMP280;7827;53.594;9.938;2023-08-20T04:45:38;24982.19;;;-135.29
15453;BMP280;7827;53.594;9.938;2023-08-20T04:48:07;25173.38;;;-135.29
15453;BMP280;7827;53.594;9.938;2023-08-20T04:50:35;24648.09;;;-135.29
15453;BMP280;7827;53.594;9.938;2023-08-20T04:53:04;24933.91;;;-135.29
15453;BMP280;7827;53.594;9.938;2023-08-20T04:55:32;24626.84;;;-135.29
15453;BMP280;7827;53.594;9.938;2023-08-20T04:58:02;24750.44;;;-135.29
15453;BMP280;7827;53.594;9.938;2023-08-20T05:00:34;24628.78;;;-135.29
15453;BMP280;7827;53.594;9.938;2023-08-20T05:03:09;24555.41;;;-135.29
15453;BMP280;7827;53.594;9.938;2023-08-20T05:05:38;24765.91;;;-135.29
15453;BMP280;7827;53.594;9.938;2023-08-20T05:08:07;24418.31;;;-135.29
15453;BMP280;7827;53.594;9.938;2023-08-20T05:10:36;24273.50;;;-135.29
15453;BMP280;7827;53.594;9.938;2023-08-20T05:13:06;24567.00;;;-135.29
15453;BMP280;7827;53.594;9.938;2023-08-20T05:15:34;24717.63;;;-135.29
15453;BMP280;7827;53.594;9.938;2023-08-20T05:18:03;24787.13;;;-135.29
15453;BMP280;7827;53.594;9.938;2023-08-20T05:20:31;24605.63;;;-135.29
15453;BMP280;7827;53.594;9.938;2023-08-20T05:23:00;24775.56;;;-135.29
15453;BMP280;7827;53.594;9.938;2023-08-20T05:25:28;24592.09;;;-135.29
15453;BMP280;7827;53.594;9.938;2023-08-20T05:27:56;24385.50;;;-135.29
15453;BMP280;7827;53.594;9.938;2023-08-20T05:30:26;24706.03;;;-135.29
15453;BMP280;7827;53.594;9.938;2023-08-20T05:32:55;24429.91;;;-135.29
15453;BMP280;7827;53.594;9.938;2023-08-20T05:35:24;24242.59;;;-135.29
15453;BMP280;7827;53.594;9.938;2023-08-20T05:37:53;24026.38;;;-135.29
15453;BMP280;7827;53.594;9.938;2023-08-20T05:40:21;24080.44;;;-135.29
15453;BMP280;7827;53.594;9.938;2023-08-20T05:42:50;23775.41;;;-135.29
15453;BMP280;7827;53.594;9.938;2023-08-20T05:45:19;23646.06;;;-135.29
15453;BMP280;7827;53.594;9.938;2023-08-20T05:47:51;23985.84;;;-135.29
15453;BMP280;7827;53.594;9.938;2023-08-20T05:50:21;23572.72;;;-135.29
15453;BMP280;7827;53.594;9.938;2023-08-20T05:52:50;23723.28;;;-135.29
15453;BMP280;7827;53.594;9.938;2023-08-20T05:55:18;23526.41;;;-135.29
15453;BMP280;7827;53.594;9.938;2023-08-20T05:57:47;23692.41;;;-135.29
15453;BMP280;7827;53.594;9.938;2023-08-20T06:00:16;23512.88;;;-135.29
15453;BMP280;7827;53.594;9.938;2023-08-20T06:02:47;23655.72;;;-135.29
15453;BMP280;7827;53.594;9.938;2023-08-20T06:05:17;23744.53;;;-135.29
15453;BMP280;7827;53.594;9.938;2023-08-20T06:07:46;23134.59;;;-135.29
15453;BMP280;7827;53.594;9.938;2023-08-20T06:10:15;23136.50;;;-135.29
15453;BMP280;7827;53.594;9.938;2023-08-20T06:12:43;23207.91;;;-135.29
15453;BMP280;7827;53.594;9.938;2023-08-20T06:15:11;23153.88;;;-135.29
15453;BMP280;7827;53.594;9.938;2023-08-20T06:17:40;23263.91;;;-135.29
15453;BMP280;7827;53.594;9.938;2023-08-20T06:20:10;22740.91;;;-135.29
15453;BMP280;7827;53.594;9.938;2023-08-20T06:22:40;22625.13;;;-135.29
15453;BMP280;7827;53.594;9.938;2023-08-20T06:25:08;22212.22;;;-135.29
15453;BMP280;7827;53.594;9.938;2023-08-20T06:27:36;21818.66;;;-135.29
15453;BMP280;7827;53.594;9.938;2023-08-20T06:30:06;21457.94;;;-135.29
15453;BMP280;7827;53.594;9.938;2023-08-20T06:32:35;21294.00;;;-135.29
15453;BMP280;7827;53.594;9.938;2023-08-20T06:35:05;20723.16;;;-135.29
15453;BMP280;7827;53.594;9.938;2023-08-20T06:37:35;20449.38;;;-135.29
15453;BMP280;7827;53.594;9.938;2023-08-20T06:40:07;19662.81;;;-135.29
15453;BMP280;7827;53.594;9.938;2023-08-20T06:42:35;19092.34;;;-135.29
15453;BMP280;7827;53.594;9.938;2023-08-20T06:45:07;18560.50;;;-135.29
15453;BMP280;7827;53.594;9.938;2023-08-20T06:47:36;18123.16;;;-135.29
15453;BMP280;7827;53.594;9.938;2023-08-20T06:50:06;17356.53;;;-135.29
15453;BMP280;7827;53.594;9.938;2023-08-20T06:52:34;16617.06;;;-135.29
15453;BMP280;7827;53.594;9.938;2023-08-20T06:55:05;16370.63;;;-135.29
15453;BMP280;7827;53.594;9.938;2023-08-20T06:57:33;17119.66;;;-135.29
15453;BMP280;7827;53.594;9.938;2023-08-20T07:00:03;17356.53;;;-135.29
15453;BMP280;7827;53.594;9.938;2023-08-20T07:02:32;16873.16;;;-135.29
15453;BMP280;7827;53.594;9.938;2023-08-20T07:05:00;17110.03;;;-135.29
15453;BMP280;7827;53.594;9.938;2023-08-20T07:07:28;17110.03;;;-135.29
15453;BMP280;7827;53.594;9.938;2023-08-20T07:09:57;17110.03;;;-135.29
15453;BMP280;7827;53.594;9.938;2023-08-20T07:12:27;18067.28;;;-135.29
15453;BMP280;7827;53.594;9.938;2023-08-20T07:14:55;18206.00;;;-135.29
15453;BMP280;7827;53.594;9.938;2023-08-20T07:17:23;18508.47;;;-135.29
15453;BMP280;7827;53.594;9.938;2023-08-20T07:19:52;18494.97;;;-135.29
15453;BMP280;7827;53.594;9.938;2023-08-20T07:22:20;18691.50;;;-135.29
15453;BMP280;7827;53.594;9.938;2023-08-20T07:24:48;18541.22;;;-135.29
15453;BMP280;7827;53.594;9.938;2023-08-20T07:27:17;17944.00;;;-135.29
15453;BMP280;7827;53.594;9.938;2023-08-20T07:29:46;17481.72;;;-135.29
15453;BMP280;7827;53.594;9.938;2023-08-20T07:32:14;17356.53;;;-135.29
15453;BMP280;7827;53.594;9.938;2023-08-20T07:34:43;17396.97;;;-135.29
15453;BMP280;7827;53.594;9.938;2023-08-20T07:37:12;17603.06;;;-135.29
15453;BMP280;7827;53.594;9.938;2023-08-20T07:39:40;17110.03;;;-135.29
15453;BMP280;7827;53.594;9.938;2023-08-20T07:42:09;16863.53;;;-135.29
15453;BMP280;7827;53.594;9.938;2023-08-20T07:44:38;16617.06;;;-135.29
15453;BMP280;7827;53.594;9.938;2023-08-20T07:47:07;16863.53;;;-135.29
15453;BMP280;7827;53.594;9.938;2023-08-20T07:49:35;16370.63;;;-135.29
15453;BMP280;7827;53.594;9.938;2023-08-20T07:52:04;16617.06;;;-135.29
15453;BMP280;7827;53.594;9.938;2023-08-20T07:54:32;16124.22;;;-135.29
15453;BMP280;7827;53.594;9.938;2023-08-20T07:57:00;15631.44;;;-135.29
15453;BMP280;7827;53.594;9.938;2023-08-20T07:59:29;15385.09;;;-135.29
15453;BMP280;7827;53.594;9.938;2023-08-20T08:01:57;14892.47;;;-135.29
15453;BMP280;7827;53.594;9.938;2023-08-20T08:04:27;13907.47;;;-135.29
15453;BMP280;7827;53.594;9.938;2023-08-20T08:06:55;13907.47;;;-135.29
15453;BMP280;7827;53.594;9.938;2023-08-20T08:09:27;13907.47;;;-135.29
15453;BMP280;7827;53.594;9.938;2023-08-20T08:11:57;14153.69;;;-135.29
15453;BMP280;7827;53.594;9.938;2023-08-20T08:14:26;14153.69;;;-135.29
15453;BMP280;7827;53.594;9.938;2023-08-20T08:16:55;14153.69;;;-135.29
15453;BMP280;7827;53.594;9.938;2023-08-20T08:19:23;14153.69;;;-135.29
15453;BMP280;7827;53.594;9.938;2023-08-20T08:21:53;14399.91;;;-135.29
15453;BMP280;7827;53.594;9.938;2023-08-20T08:24:21;14399.91;;;-135.29
15453;BMP280;7827;53.594;9.938;2023-08-20T08:26:49;13907.47;;;-135.29
15453;BMP280;7827;53.594;9.938;2023-08-20T08:29:18;13661.28;;;-135.29
15453;BMP280;7827;53.594;9.938;2023-08-20T08:31:46;13907.47;;;-135.29
15453;BMP280;7827;53.594;9.938;2023-08-20T08:34:14;14153.69;;;-135.29
15453;BMP280;7827;53.594;9.938;2023-08-20T08:36:43;13661.28;;;-135.29
15453;BMP280;7827;53.594;9.938;2023-08-20T08:39:13;13415.09;;;-135.29
15453;BMP280;7827;53.594;9.938;2023-08-20T08:41:42;13661.28;;;-135.29
15453;BMP280;7827;53.594;9.938;2023-08-20T08:44:11;13168.94;;;-135.29
15453;BMP280;7827;53.594;9.938;2023-08-20T08:46:40;13661.28;;;-135.29
15453;BMP280;7827;53.594;9.938;2023-08-20T08:49:08;13415.09;;;-135.29
15453;BMP280;7827;53.594;9.938;2023-08-20T08:51:38;13661.28;;;-135.29
15453;BMP280;7827;53.594;9.938;2023-08-20T08:54:09;12922.81;;;-135.29
15453;BMP280;7827;53.594;9.938;2023-08-20T08:56:42;12676.72;;;-135.29
15453;BMP280;7827;53.594;9.938;2023-08-20T08:59:10;13168.94;;;-135.29
15453;BMP280;7827;53.594;9.938;2023-08-20T09:01:40;12676.72;;;-135.29
15453;BMP280;7827;53.594;9.938;2023-08-20T09:04:09;12676.72;;;-135.29
15453;BMP280;7827;53.594;9.938;2023-08-20T09:06:47;12184.56;;;-135.29
15453;BMP280;7827;53.594;9.938;2023-08-20T09:09:18;12430.63;;;-135.29
15453;BMP280;7827;53.594;9.938;2023-08-20T09:11:49;11938.53;;;-135.29
15453;BMP280;7827;53.594;9.938;2023-08-20T09:14:21;11446.50;;;-135.29
15453;BMP280;7827;53.594;9.938;2023-08-20T09:16:59;11692.50;;;-135.29
15453;BMP280;7827;53.594;9.938;2023-08-20T09:19:29;10954.59;;;-135.29
15453;BMP280;7827;53.594;9.938;2023-08-20T09:22:00;10708.66;;;-135.29
15453;BMP280;7827;53.594;9.938;2023-08-20T09:24:33;10462.75;;;-135.29
15453;BMP280;7827;53.594;9.938;2023-08-20T09:27:05;10708.66;;;-135.29
15453;BMP280;7827;53.594;9.938;2023-08-20T09:29:43;10708.66;;;-135.29
15453;BMP280;7827;53.594;9.938;2023-08-20T09:32:15;10954.59;;;-135.29
15453;BMP280;7827;53.594;9.938;2023-08-20T09:34:44;10954.59;;;-135.29
15453;BMP280;7827;53.594;9.938;2023-08-20T09:37:14;10708.66;;;-135.29
15453;BMP280;7827;53.594;9.938;2023-08-20T09:39:43;9971.00;;;-135.29
15453;BMP280;7827;53.594;9.938;2023-08-20T09:42:14;9971.00;;;-135.29
15453;BMP280;7827;53.594;9.938;2023-08-20T09:44:44;9479.34;;;-135.29
15453;BMP280;7827;53.594;9.938;2023-08-20T09:47:20;9479.34;;;-135.29
15453;BMP280;7827;53.594;9.938;2023-08-20T09:49:52;10216.88;;;-135.29
15453;BMP280;7827;53.594;9.938;2023-08-20T09:52:27;9971.00;;;-135.29
15453;BMP280;7827;53.594;9.938;2023-08-20T09:55:05;10216.88;;;-135.29
15453;BMP280;7827;53.594;9.938;2023-08-20T09:57:39;10216.88;;;-135.29
15453;BMP280;7827;53.594;9.938;2023-08-20T10:00:14;9725.16;;;-135.29
15453;BMP280;7827;53.594;9.938;2023-08-20T10:02:44;8987.78;;;-135.29
15453;BMP280;7827;53.594;9.938;2023-08-20T10:05:13;8742.03;;;-135.29
15453;BMP280;7827;53.594;9.938;2023-08-20T10:07:43;8742.03;;;-135.29
15453;BMP280;7827;53.594;9.938;2023-08-20T10:10:11;8250.59;;;-135.29
15453;BMP280;7827;53.594;9.938;2023-08-20T10:12:43;8250.59;;;-135.29
15453;BMP280;7827;53.594;9.938;2023-08-20T10:15:13;7759.22;;;-135.29
15453;BMP280;7827;53.594;9.938;2023-08-20T10:17:44;7759.22;;;-135.29
15453;BMP280;7827;53.594;9.938;2023-08-20T10:20:14;7513.59;;;-135.29
15453;BMP280;7827;53.594;9.938;2023-08-20T10:22:45;8004.91;;;-135.29
15453;BMP280;7827;53.594;9.938;2023-08-20T10:25:24;8004.91;;;-135.29
15453;BMP280;7827;53.594;9.938;2023-08-20T10:28:11;8742.03;;;-135.29
15453;BMP280;7827;53.594;9.938;2023-08-20T10:31:04;8742.03;;;-135.29
15453;BMP280;7827;53.594;9.938;2023-08-20T10:33:38;8742.03;;;-135.29
15453;BMP280;7827;53.594;9.938;2023-08-20T10:36:09;8742.03;;;-135.29
15453;BMP280;7827;53.594;9.938;2023-08-20T10:38:38;8742.03;;;-135.29
15453;BMP280;7827;53.594;9.938;2023-08-20T10:41:07;8987.78;;;-135.29
15453;BMP280;7827;53.594;9.938;2023-08-20T10:43:40;8987.78;;;-135.29
15453;BMP280;7827;53.594;9.938;2023-08-20T10:46:18;8742.03;;;-135.29
15453;BMP280;7827;53.594;9.938;2023-08-20T10:48:49;8250.59;;;-135.29
15453;BMP280;7827;53.594;9.938;2023-08-20T10:51:24;8004.91;;;-135.29
15453;BMP280;7827;53.594;9.938;2023-08-20T10:54:07;7022.38;;;-135.29
15453;BMP280;7827;53.594;9.938;2023-08-20T10:56:44;6776.81;;;-135.29
15453;BMP280;7827;53.594;9.938;2023-08-20T10:59:21;6040.22;;;-135.29
15453;BMP280;7827;53.594;9.938;2023-08-20T11:01:53;6285.72;;;-135.29
15453;BMP280;7827;53.594;9.938;2023-08-20T11:04:24;7022.38;;;-135.29
15453;BMP280;7827;53.594;9.938;2023-08-20T11:06:56;7759.22;;;-135.29
15453;BMP280;7827;53.594;9.938;2023-08-20T11:09:27;8004.91;;;-135.29
15453;BMP280;7827;53.594;9.938;2023-08-20T11:11:56;7759.22;;;-135.29
15453;BMP280;7827;53.594;9.938;2023-08-20T11:14:26;6531.25;;;-135.29
15453;BMP280;7827;53.594;9.938;2023-08-20T11:16:55;6531.25;;;-135.29
15453;BMP280;7827;53.594;9.938;2023-08-20T11:19:24;6285.72;;;-135.29
15453;BMP280;7827;53.594;9.938;2023-08-20T11:21:52;6531.25;;;-135.29
15453;BMP280;7827;53.594;9.938;2023-08-20T11:24:23;7267.97;;;-135.29
15453;BMP280;7827;53.594;9.938;2023-08-20T11:26:53;7022.38;;;-135.29
15453;BMP280;7827;53.594;9.938;2023-08-20T11:29:26;7267.97;;;-135.29
15453;BMP280;7827;53.594;9.938;2023-08-20T11:31:55;7513.59;;;-135.29
15453;BMP280;7827;53.594;9.938;2023-08-20T11:34:24;7759.22;;;-135.29
15453;BMP280;7827;53.594;9.938;2023-08-20T11:36:54;7759.22;;;-135.29
15453;BMP280;7827;53.594;9.938;2023-08-20T11:39:23;8004.91;;;-135.29
15453;BMP280;7827;53.594;9.938;2023-08-20T11:41:52;7513.59;;;-135.29
15453;BMP280;7827;53.594;9.938;2023-08-20T11:44:22;7513.59;;;-135.29
15453;BMP280;7827;53.594;9.938;2023-08-20T11:46:54;7022.38;;;-135.29
15453;BMP280;7827;53.594;9.938;2023-08-20T11:49:29;7267.97;;;-135.29
15453;BMP280;7827;53.594;9.938;2023-08-20T11:51:57;7759.22;;;-135.29
15453;BMP280;7827;53.594;9.938;2023-08-20T11:54:26;7759.22;;;-135.29
15453;BMP280;7827;53.594;9.938;2023-08-20T11:57:02;8004.91;;;-135.29
15453;BMP280;7827;53.594;9.938;2023-08-20T11:59:31;7759.22;;;-135.29
15453;BMP280;7827;53.594;9.938;2023-08-20T12:02:03;8250.59;;;-135.29
15453;BMP280;7827;53.594;9.938;2023-08-20T12:04:32;8496.28;;;-135.29
15453;BMP280;7827;53.594;9.938;2023-08-20T12:07:08;8496.28;;;-135.29
15453;BMP280;7827;53.594;9.938;2023-08-20T12:09:36;8250.59;;;-135.29
15453;BMP280;7827;53.594;9.938;2023-08-20T12:12:08;8250.59;;;-135.29
15453;BMP280;7827;53.594;9.938;2023-08-20T12:14:36;8250.59;;;-135.29
15453;BMP280;7827;53.594;9.938;2023-08-20T12:17:08;8250.59;;;-135.29
15453;BMP280;7827;53.594;9.938;2023-08-20T12:19:38;8250.59;;;-135.29
15453;BMP280;7827;53.594;9.938;2023-08-20T12:22:06;8004.91;;;-135.29
15453;BMP280;7827;53.594;9.938;2023-08-20T12:24:35;8250.59;;;-135.29
15453;BMP280;7827;53.594;9.938;2023-08-20T12:27:05;8250.59;;;-135.29
15453;BMP280;7827;53.594;9.938;2023-08-20T12:29:34;7759.22;;;-135.29
15453;BMP280;7827;53.594;9.938;2023-08-20T12:32:03;7759.22;;;-135.29
15453;BMP280;7827;53.594;9.938;2023-08-20T12:34:35;8496.28;;;-135.29
15453;BMP280;7827;53.594;9.938;2023-08-20T12:37:04;8250.59;;;-135.29
15453;BMP280;7827;53.594;9.938;2023-08-20T12:39:32;8250.59;;;-135.29
15453;BMP280;7827;53.594;9.938;2023-08-20T12:42:01;8496.28;;;-135.29
15453;BMP280;7827;53.594;9.938;2023-08-20T12:44:29;8250.59;;;-135.29
15453;BMP280;7827;53.594;9.938;2023-08-20T12:46:58;7759.22;;;-135.29
15453;BMP280;7827;53.594;9.938;2023-08-20T12:49:26;7022.38;;;-135.29
15453;BMP280;7827;53.594;9.938;2023-08-20T12:51:56;7022.38;;;-135.29
15453;BMP280;7827;53.594;9.938;2023-08-20T12:54:24;7022.38;;;-135.29
15453;BMP280;7827;53.594;9.938;2023-08-20T12:56:52;7267.97;;;-135.29
15453;BMP280;7827;53.594;9.938;2023-08-20T12:59:22;6776.81;;;-135.29
15453;BMP280;7827;53.594;9.938;2023-08-20T13:01:53;6285.72;;;-135.29
15453;BMP280;7827;53.594;9.938;2023-08-20T13:04:22;6531.25;;;-135.29
15453;BMP280;7827;53.594;9.938;2023-08-20T13:06:51;6040.22;;;-135.29
15453;BMP280;7827;53.594;9.938;2023-08-20T13:09:22;5794.72;;;-135.29
15453;BMP280;7827;53.594;9.938;2023-08-20T13:11:53;5549.25;;;-135.29
15453;BMP280;7827;53.594;9.938;2023-08-20T13:14:24;4813.00;;;-135.29
15453;BMP280;7827;53.594;9.938;2023-08-20T13:16:53;5058.41;;;-135.29
15453;BMP280;7827;53.594;9.938;2023-08-20T13:19:23;4813.00;;;-135.29
15453;BMP280;7827;53.594;9.938;2023-08-20T13:21:52;4322.28;;;-135.29
15453;BMP280;7827;53.594;9.938;2023-08-20T13:24:22;4322.28;;;-135.29
15453;BMP280;7827;53.594;9.938;2023-08-20T13:26:51;4076.94;;;-135.29
15453;BMP280;7827;53.594;9.938;2023-08-20T13:29:20;4322.28;;;-135.29
15453;BMP280;7827;53.594;9.938;2023-08-20T13:31:48;4076.94;;;-135.29
15453;BMP280;7827;53.594;9.938;2023-08-20T13:34:17;4322.28;;;-135.29
15453;BMP280;7827;53.594;9.938;2023-08-20T13:36:45;4567.63;;;-135.29
15453;BMP280;7827;53.594;9.938;2023-08-20T13:39:14;4813.00;;;-135.29
15453;BMP280;7827;53.594;9.938;2023-08-20T13:41:44;4813.00;;;-135.29
15453;BMP280;7827;53.594;9.938;2023-08-20T13:44:12;4813.00;;;-135.29
15453;BMP280;7827;53.594;9.938;2023-08-20T13:46:40;5303.81;;;-135.29
15453;BMP280;7827;53.594;9.938;2023-08-20T13:49:09;5303.81;;;-135.29
15453;BMP280;7827;53.594;9.938;2023-08-20T13:51:37;5549.25;;;-135.29
15453;BMP280;7827;53.594;9.938;2023-08-20T13:54:06;5794.72;;;-135.29
15453;BMP280;7827;53.594;9.938;2023-08-20T13:56:34;5549.25;;;-135.29
15453;BMP280;7827;53.594;9.938;2023-08-20T13:59:05;5303.81;;;-135.29
15453;BMP280;7827;53.594;9.938;2023-08-20T14:01:33;4813.00;;;-135.29
15453;BMP280;7827;53.594;9.938;2023-08-20T14:04:02;4813.00;;;-135.29
15453;BMP280;7827;53.594;9.938;2023-08-20T14:06:31;5058.41;;;-135.29
15453;BMP280;7827;53.594;9.938;2023-08-20T14:08:59;5058.41;;;-135.29
15453;BMP280;7827;53.594;9.938;2023-08-20T14:11:28;5058.41;;;-135.29
15453;BMP280;7827;53.594;9.938;2023-08-20T14:13:56;5303.81;;;-135.29
15453;BMP280;7827;53.594;9.938;2023-08-20T14:16:26;5794.72;;;-135.29